Kortcamp, Illinois
Current Conditions -  °F | °C
As of 9:15 AM on Thursday 23 Oct 2014 (Local Time) from K3LF Reporting Station
Clear Clear  
Wind Chill:   Ceiling: Unl
Heat Index:   Visibility: 7mi
Dew Point:   Wind: 6mph
Humidity: 84%   Direction: 160°SSE
Pressure: 30.23"   Gusts: NA
Location:  39.1415°N, 89.5029°W
Report Text: K3LF 231415Z AUTO 16005KT 7SM CLR 08/05 A3023 RMK AO2 T00750050
Loading
Personal Weather Stations






























Interactive Weather Map
Tropical Storm Tracking
New forecast layout! Learn more

10-Day Weather Forecast

Advertisements
Track Severe Weather on mobile